createdAt,value
2024-05-09T00:11:00.037Z,1029.8
2024-05-09T00:25:55.781Z,1029.8
2024-05-09T00:40:51.779Z,1029.8
2024-05-09T00:55:48.007Z,1029.8
2024-05-09T01:10:45.045Z,1029.8
2024-05-09T01:25:39.897Z,1029.8
2024-05-09T01:40:36.899Z,1029.8
2024-05-09T01:55:30.996Z,1029.7
2024-05-09T02:10:31.653Z,1029.7
2024-05-09T02:25:23.085Z,1029.6
2024-05-09T02:40:21.821Z,1029.7
2024-05-09T03:10:17.897Z,1029.7
2024-05-09T03:25:08.317Z,1029.6
2024-05-09T03:40:07.312Z,1029.5
2024-05-09T03:55:01.484Z,1029.5
2024-05-09T04:09:57.258Z,1029.5
2024-05-09T04:24:53.374Z,1029.7
2024-05-09T04:39:50.342Z,1029.8
2024-05-09T04:54:46.322Z,1029.8
2024-05-09T05:09:42.516Z,1029.7
2024-05-09T05:24:39.004Z,1029.8
2024-05-09T05:39:35.341Z,1029.8
2024-05-09T05:54:32.058Z,1029.9
2024-05-09T06:09:28.404Z,1030
2024-05-09T06:24:24.812Z,1029.9
2024-05-09T06:39:21.635Z,1029.9
2024-05-09T06:54:17.792Z,1029.9
2024-05-09T07:09:14.135Z,1029.8
2024-05-09T07:24:10.075Z,1029.9
2024-05-09T07:39:06.766Z,1029.8
2024-05-09T07:54:04.169Z,1029.5
2024-05-09T08:09:02.965Z,1029.3
2024-05-09T08:23:56.219Z,1029.2
2024-05-09T08:38:53.312Z,1029
2024-05-09T08:53:49.898Z,1028.8
2024-05-09T09:08:46.769Z,1028.7
2024-05-09T09:23:43.984Z,1028.4
2024-05-09T09:38:40.626Z,1028.2
2024-05-09T09:53:38.146Z,1028.1
2024-05-09T10:08:35.361Z,1027.9
2024-05-09T10:23:32.015Z,1027.9
2024-05-09T10:38:28.408Z,1027.7
2024-05-09T10:53:24.722Z,1027.5
2024-05-09T11:08:21.134Z,1027.3
2024-05-09T11:23:17.368Z,1027.2
2024-05-09T11:38:13.930Z,1027
2024-05-09T11:53:10.723Z,1027
2024-05-09T12:08:06.789Z,1026.8
2024-05-09T12:23:03.483Z,1026.5
2024-05-09T12:38:00.263Z,1026.4
2024-05-09T12:52:56.507Z,1026.2
2024-05-09T13:07:52.762Z,1026
2024-05-09T13:22:48.959Z,1025.9
2024-05-09T13:37:44.988Z,1025.8
2024-05-09T13:52:41.566Z,1025.7
2024-05-09T14:07:36.708Z,1025.6
2024-05-09T14:22:32.611Z,1025.4
2024-05-09T14:37:28.099Z,1025.3
2024-05-09T14:52:24.747Z,1025.2
2024-05-09T15:07:21.182Z,1025
2024-05-09T15:22:17.399Z,1024.9
2024-05-09T15:37:13.540Z,1024.7
2024-05-09T15:52:10.443Z,1024.6
2024-05-09T16:07:06.376Z,1024.5
2024-05-09T16:22:02.207Z,1024.4
2024-05-09T16:36:58.665Z,1024.5
2024-05-09T16:51:54.944Z,1024.4
2024-05-09T17:06:51.231Z,1024.3
2024-05-09T17:21:47.401Z,1024.4
2024-05-09T17:36:43.494Z,1024.5
2024-05-09T17:51:39.689Z,1024.5
2024-05-09T18:06:35.852Z,1024.4
2024-05-09T18:21:31.791Z,1024.5
2024-05-09T18:36:28.284Z,1024.5
2024-05-09T18:51:24.256Z,1024.6
2024-05-09T19:06:22.762Z,1024.7
2024-05-09T19:21:16.397Z,1024.9
2024-05-09T19:36:12.280Z,1025.1
2024-05-09T19:51:08.352Z,1025.3
2024-05-09T20:06:03.835Z,1025.4
2024-05-09T20:20:59.726Z,1025.6
2024-05-09T20:35:55.584Z,1025.8
2024-05-09T20:50:50.877Z,1025.7
2024-05-09T21:05:47.367Z,1025.6
2024-05-09T21:21:02.894Z,1025.7
2024-05-09T21:35:39.046Z,1025.8
2024-05-09T21:50:38.904Z,1025.9
2024-05-09T22:05:31.364Z,1025.8
2024-05-09T22:20:29.359Z,1025.9
2024-05-09T22:35:22.921Z,1025.9
2024-05-09T22:50:22.733Z,1026
2024-05-09T23:05:14.502Z,1025.9
2024-05-09T23:20:11.479Z,1025.9
2024-05-09T23:35:06.471Z,1026
2024-05-09T23:50:03.858Z,1025.9
